KLM1960 LTFM-EHAM
Flight info
| Callsign | KLM1960 |
|---|---|
| Flight time | N/A |
| Altitude | 34000 |
| Route | TUDBU1D/35L TUDBU DCT ETUBA DCT ELDET/N0451F360 DCT BACAM DCT SODGO DCT INVED DCT DITIS DCT VARIK DCT KATCE DCT NORKU |
| Aircraft | B738/M-SDE2E3FGHIJ1RWXYZ/LB1 |
Departure
| Time | N/A |
|---|---|
| Airport | İstanbul Airport (LTFM) |
Arrival
| Time | 2026-04-30 19:17 |
|---|---|
| Airport | Amsterdam Airport Schiphol (EHAM) |
| Time | Latitude | Longitude | Altitude | Speed | Heading |
|---|---|---|---|---|---|
| 2026-04-30 18:12 | 50.08102 | 12.81194 | 36379 ft | 433 kts | 315° |
| 2026-04-30 18:13 | 50.11764 | 12.73729 | 36397 ft | 434 kts | 314° |
| 2026-04-30 18:14 | 50.20910 | 12.54994 | 36428 ft | 435 kts | 314° |
| 2026-04-30 18:15 | 50.31892 | 12.32379 | 36433 ft | 435 kts | 314° |
| 2026-04-30 18:16 | 50.39256 | 12.17346 | 36415 ft | 435 kts | 314° |
| 2026-04-30 18:17 | 50.42928 | 12.09792 | 36385 ft | 436 kts | 312° |
| 2026-04-30 18:18 | 50.47236 | 11.98970 | 36404 ft | 441 kts | 307° |
| 2026-04-30 18:18 | 50.50325 | 11.90635 | 36408 ft | 441 kts | 307° |
| 2026-04-30 18:19 | 50.53434 | 11.82338 | 36417 ft | 440 kts | 307° |
| 2026-04-30 18:19 | 50.56568 | 11.74062 | 36425 ft | 440 kts | 307° |
| 2026-04-30 18:20 | 50.59702 | 11.65798 | 36413 ft | 439 kts | 307° |
| 2026-04-30 18:20 | 50.62824 | 11.57542 | 36424 ft | 438 kts | 307° |
| 2026-04-30 18:21 | 50.65939 | 11.49280 | 36433 ft | 438 kts | 307° |
| 2026-04-30 18:21 | 50.69046 | 11.41009 | 36426 ft | 438 kts | 307° |
| 2026-04-30 18:22 | 50.72150 | 11.32721 | 36441 ft | 438 kts | 307° |
| 2026-04-30 18:22 | 50.76787 | 11.20287 | 36422 ft | 438 kts | 306° |
| 2026-04-30 18:23 | 50.79877 | 11.11966 | 36427 ft | 438 kts | 306° |
| 2026-04-30 18:23 | 50.82957 | 11.03649 | 36430 ft | 439 kts | 306° |
| 2026-04-30 18:24 | 50.87573 | 10.91131 | 36431 ft | 439 kts | 306° |
| 2026-04-30 18:25 | 50.90643 | 10.82771 | 36421 ft | 439 kts | 305° |
| 2026-04-30 18:25 | 50.95222 | 10.70250 | 36430 ft | 440 kts | 305° |
| 2026-04-30 18:26 | 50.99814 | 10.57634 | 36423 ft | 441 kts | 305° |
| 2026-04-30 18:27 | 51.04398 | 10.44976 | 36395 ft | 441 kts | 305° |
| 2026-04-30 18:28 | 51.08964 | 10.32304 | 36413 ft | 440 kts | 304° |
| 2026-04-30 18:28 | 51.13506 | 10.19636 | 36421 ft | 440 kts | 304° |
| 2026-04-30 18:29 | 51.19551 | 10.02678 | 36425 ft | 440 kts | 304° |
| 2026-04-30 18:30 | 51.25572 | 9.85676 | 36425 ft | 440 kts | 303° |
| 2026-04-30 18:31 | 51.30073 | 9.72887 | 36417 ft | 440 kts | 303° |
| 2026-04-30 18:32 | 51.34557 | 9.60086 | 36397 ft | 440 kts | 303° |
| 2026-04-30 18:33 | 51.39023 | 9.47269 | 36402 ft | 440 kts | 302° |
| 2026-04-30 18:33 | 51.43478 | 9.34419 | 36411 ft | 440 kts | 302° |
| 2026-04-30 18:34 | 51.47919 | 9.21545 | 36407 ft | 440 kts | 302° |
| 2026-04-30 18:35 | 51.50873 | 9.12946 | 36406 ft | 440 kts | 302° |
| 2026-04-30 18:35 | 51.53820 | 9.04334 | 36393 ft | 440 kts | 302° |
| 2026-04-30 18:36 | 51.58228 | 8.91403 | 36389 ft | 440 kts | 302° |
| 2026-04-30 18:37 | 51.62620 | 8.78448 | 36375 ft | 440 kts | 302° |
| 2026-04-30 18:37 | 51.65541 | 8.69797 | 36366 ft | 440 kts | 301° |
| 2026-04-30 18:38 | 51.68452 | 8.61143 | 36375 ft | 440 kts | 301° |
| 2026-04-30 18:38 | 51.71365 | 8.52455 | 36376 ft | 440 kts | 301° |
| 2026-04-30 18:39 | 51.74265 | 8.43776 | 36380 ft | 440 kts | 301° |
| 2026-04-30 18:39 | 51.77164 | 8.35067 | 36390 ft | 440 kts | 301° |
| 2026-04-30 18:40 | 51.80059 | 8.26342 | 36374 ft | 440 kts | 301° |
| 2026-04-30 18:40 | 51.82943 | 8.17617 | 36384 ft | 440 kts | 300° |
| 2026-04-30 18:41 | 51.85826 | 8.08866 | 36382 ft | 441 kts | 300° |
| 2026-04-30 18:41 | 51.87260 | 8.04500 | 36252 ft | 440 kts | 300° |
| 2026-04-30 18:41 | 51.88691 | 8.00136 | 35932 ft | 435 kts | 300° |
| 2026-04-30 18:41 | 51.90098 | 7.95834 | 35523 ft | 430 kts | 300° |
| 2026-04-30 18:42 | 51.91492 | 7.91568 | 35158 ft | 426 kts | 300° |
| 2026-04-30 18:42 | 51.94236 | 7.83150 | 34411 ft | 419 kts | 300° |
| 2026-04-30 18:42 | 51.95591 | 7.78982 | 33959 ft | 416 kts | 300° |
| 2026-04-30 18:45 | 52.08452 | 7.39081 | 30325 ft | 385 kts | 299° |
| 2026-04-30 18:45 | 52.09680 | 7.35236 | 29921 ft | 382 kts | 299° |
| 2026-04-30 18:45 | 52.10900 | 7.31410 | 29558 ft | 379 kts | 299° |
| 2026-04-30 18:46 | 52.12105 | 7.27626 | 29180 ft | 376 kts | 299° |
| 2026-04-30 18:46 | 52.13297 | 7.23876 | 28838 ft | 372 kts | 299° |
| 2026-04-30 18:46 | 52.14485 | 7.20136 | 28468 ft | 369 kts | 298° |
| 2026-04-30 18:46 | 52.15656 | 7.16440 | 28132 ft | 366 kts | 298° |
| 2026-04-30 18:47 | 52.16822 | 7.12758 | 27770 ft | 365 kts | 298° |
| 2026-04-30 18:47 | 52.17983 | 7.09083 | 27421 ft | 365 kts | 298° |
| 2026-04-30 18:47 | 52.19152 | 7.05384 | 27081 ft | 372 kts | 298° |
| 2026-04-30 18:47 | 52.20349 | 7.01586 | 26728 ft | 381 kts | 298° |
| 2026-04-30 18:48 | 52.21575 | 6.97734 | 26351 ft | 383 kts | 301° |
| 2026-04-30 18:48 | 52.23093 | 6.94186 | 25895 ft | 381 kts | 311° |
| 2026-04-30 18:48 | 52.24799 | 6.90891 | 25458 ft | 380 kts | 312° |
| 2026-04-30 18:48 | 52.26519 | 6.87613 | 25022 ft | 380 kts | 311° |
| 2026-04-30 18:49 | 52.28224 | 6.84308 | 24599 ft | 380 kts | 311° |
| 2026-04-30 18:49 | 52.29911 | 6.80964 | 24156 ft | 383 kts | 310° |
| 2026-04-30 18:49 | 52.31600 | 6.77575 | 23676 ft | 390 kts | 310° |
| 2026-04-30 18:49 | 52.33324 | 6.74099 | 23165 ft | 394 kts | 310° |
| 2026-04-30 18:50 | 52.35056 | 6.70607 | 22682 ft | 395 kts | 310° |
| 2026-04-30 18:50 | 52.36783 | 6.67123 | 22202 ft | 393 kts | 310° |
| 2026-04-30 18:50 | 52.38504 | 6.63652 | 21757 ft | 392 kts | 310° |
| 2026-04-30 18:50 | 52.40218 | 6.60189 | 21313 ft | 391 kts | 310° |
| 2026-04-30 18:51 | 52.41927 | 6.56734 | 20867 ft | 390 kts | 310° |
| 2026-04-30 18:51 | 52.43633 | 6.53280 | 20417 ft | 390 kts | 310° |
| 2026-04-30 18:51 | 52.45333 | 6.49830 | 19975 ft | 390 kts | 309° |
| 2026-04-30 18:51 | 52.46701 | 6.46006 | 19499 ft | 391 kts | 289° |
| 2026-04-30 18:52 | 52.47236 | 6.41659 | 19099 ft | 387 kts | 275° |
| 2026-04-30 18:52 | 52.47783 | 6.37343 | 18600 ft | 388 kts | 292° |
| 2026-04-30 18:52 | 52.49163 | 6.33594 | 18139 ft | 384 kts | 314° |
| 2026-04-30 18:52 | 52.51210 | 6.30890 | 17772 ft | 374 kts | 335° |
| 2026-04-30 18:53 | 52.53604 | 6.29469 | 17533 ft | 360 kts | 349° |
| 2026-04-30 18:53 | 52.56023 | 6.28581 | 17268 ft | 353 kts | 352° |
| 2026-04-30 18:53 | 52.58386 | 6.27798 | 17007 ft | 348 kts | 352° |
| 2026-04-30 18:53 | 52.60771 | 6.27021 | 16788 ft | 341 kts | 353° |
| 2026-04-30 18:54 | 52.63039 | 6.26284 | 16659 ft | 334 kts | 353° |
| 2026-04-30 18:54 | 52.65296 | 6.25500 | 16518 ft | 332 kts | 346° |
| 2026-04-30 18:54 | 52.67350 | 6.23749 | 16371 ft | 337 kts | 322° |
| 2026-04-30 18:54 | 52.68853 | 6.20796 | 16250 ft | 340 kts | 298° |
| 2026-04-30 18:55 | 52.69572 | 6.17078 | 16134 ft | 344 kts | 274° |
| 2026-04-30 18:55 | 52.68508 | 6.09587 | 15602 ft | 338 kts | 239° |
| 2026-04-30 18:55 | 52.67401 | 6.06169 | 15260 ft | 336 kts | 237° |
| 2026-04-30 18:56 | 52.65171 | 5.99507 | 14609 ft | 330 kts | 237° |
| 2026-04-30 18:56 | 52.64071 | 5.96203 | 14281 ft | 329 kts | 237° |
| 2026-04-30 18:56 | 52.62981 | 5.92911 | 13935 ft | 327 kts | 237° |
| 2026-04-30 18:57 | 52.60825 | 5.86357 | 13250 ft | 323 kts | 237° |
| 2026-04-30 18:57 | 52.59761 | 5.83117 | 12919 ft | 321 kts | 237° |
| 2026-04-30 18:57 | 52.58705 | 5.79902 | 12588 ft | 319 kts | 238° |
| 2026-04-30 18:58 | 52.56613 | 5.73539 | 11959 ft | 314 kts | 237° |
| 2026-04-30 18:58 | 52.55578 | 5.70395 | 11655 ft | 312 kts | 237° |
| 2026-04-30 18:58 | 52.54546 | 5.67264 | 11339 ft | 310 kts | 237° |
| 2026-04-30 18:59 | 52.52504 | 5.61085 | 10736 ft | 307 kts | 237° |
| 2026-04-30 19:00 | 52.49853 | 5.51692 | 10136 ft | 298 kts | 247° |
| 2026-04-30 19:00 | 52.49190 | 5.48467 | 10006 ft | 299 kts | 248° |
| 2026-04-30 19:00 | 52.47847 | 5.41950 | 9771 ft | 303 kts | 247° |
| 2026-04-30 19:01 | 52.46702 | 5.36516 | 9593 ft | 302 kts | 246° |
| 2026-04-30 19:01 | 52.46011 | 5.33281 | 9470 ft | 301 kts | 246° |
| 2026-04-30 19:02 | 52.44616 | 5.26816 | 9225 ft | 300 kts | 246° |
| 2026-04-30 19:02 | 52.43217 | 5.20373 | 8996 ft | 299 kts | 246° |
| 2026-04-30 19:03 | 52.41818 | 5.13964 | 8749 ft | 298 kts | 246° |
| 2026-04-30 19:03 | 52.40419 | 5.07581 | 8515 ft | 297 kts | 246° |
| 2026-04-30 19:04 | 52.39023 | 5.01226 | 8271 ft | 296 kts | 246° |
| 2026-04-30 19:04 | 52.37634 | 4.94894 | 8051 ft | 295 kts | 246° |
| 2026-04-30 19:05 | 52.36277 | 4.88563 | 7810 ft | 294 kts | 246° |
| 2026-04-30 19:05 | 52.34939 | 4.82250 | 7584 ft | 294 kts | 246° |
| 2026-04-30 19:06 | 52.33610 | 4.75948 | 7367 ft | 292 kts | 246° |
| 2026-04-30 19:06 | 52.32953 | 4.72812 | 7331 ft | 292 kts | 246° |
| 2026-04-30 19:06 | 52.31639 | 4.66530 | 6742 ft | 287 kts | 246° |
| 2026-04-30 19:07 | 52.30432 | 4.60593 | 6297 ft | 267 kts | 246° |
| 2026-04-30 19:07 | 52.29860 | 4.57756 | 6031 ft | 259 kts | 246° |
| 2026-04-30 19:08 | 52.28758 | 4.52246 | 5567 ft | 253 kts | 246° |
| 2026-04-30 19:08 | 52.27681 | 4.46876 | 5162 ft | 248 kts | 246° |
| 2026-04-30 19:08 | 52.27144 | 4.44202 | 4891 ft | 247 kts | 246° |
| 2026-04-30 19:09 | 52.26106 | 4.38985 | 4580 ft | 237 kts | 246° |
| 2026-04-30 19:09 | 52.25610 | 4.36448 | 4482 ft | 226 kts | 245° |
| 2026-04-30 19:09 | 52.24860 | 4.34418 | 4303 ft | 200 kts | 212° |
| 2026-04-30 19:10 | 52.22566 | 4.34115 | 3951 ft | 166 kts | 154° |
| 2026-04-30 19:10 | 52.21362 | 4.36938 | 3585 ft | 164 kts | 95° |
| 2026-04-30 19:11 | 52.21417 | 4.38823 | 3471 ft | 169 kts | 92° |
| 2026-04-30 19:11 | 52.21579 | 4.42714 | 3134 ft | 174 kts | 92° |
| 2026-04-30 19:11 | 52.21657 | 4.44653 | 2923 ft | 169 kts | 92° |
| 2026-04-30 19:12 | 52.21732 | 4.46511 | 2783 ft | 161 kts | 92° |
| 2026-04-30 19:12 | 52.21801 | 4.48325 | 2659 ft | 160 kts | 92° |
| 2026-04-30 19:12 | 52.21870 | 4.50146 | 2543 ft | 162 kts | 92° |
| 2026-04-30 19:13 | 52.22001 | 4.53792 | 2289 ft | 159 kts | 92° |
| 2026-04-30 19:13 | 52.22659 | 4.57201 | 2076 ft | 168 kts | 65° |
| 2026-04-30 19:13 | 52.23254 | 4.58848 | 2027 ft | 169 kts | 68° |
| 2026-04-30 19:14 | 52.23860 | 4.60506 | 1880 ft | 170 kts | 67° |
| 2026-04-30 19:14 | 52.24470 | 4.62111 | 1654 ft | 161 kts | 66° |
| 2026-04-30 19:14 | 52.25040 | 4.63598 | 1452 ft | 149 kts | 66° |
| 2026-04-30 19:14 | 52.25571 | 4.64991 | 1267 ft | 145 kts | 66° |
| 2026-04-30 19:15 | 52.26092 | 4.66352 | 1091 ft | 137 kts | 68° |
| 2026-04-30 19:15 | 52.27093 | 4.68974 | 705 ft | 136 kts | 63° |
| 2026-04-30 19:15 | 52.27605 | 4.70310 | 526 ft | 141 kts | 62° |
| 2026-04-30 19:16 | 52.28128 | 4.71675 | 361 ft | 143 kts | 62° |
| 2026-04-30 19:16 | 52.28651 | 4.73045 | 125 ft | 143 kts | 61° |
| 2026-04-30 19:16 | 52.29586 | 4.75483 | -3 ft | 82 kts | 57° |
| 2026-04-30 19:17 | 52.29821 | 4.76095 | -5 ft | 56 kts | 57° |
| 2026-04-30 19:17 | 52.30086 | 4.76592 | -3 ft | 21 kts | 27° |
| 2026-04-30 19:17 | 52.30169 | 4.76661 | -2 ft | 10 kts | 27° |
| 2026-04-30 19:18 | 52.30267 | 4.76746 | -2 ft | 9 kts | 29° |
| 2026-04-30 19:18 | 52.30329 | 4.76867 | -2 ft | 13 kts | 56° |
| 2026-04-30 19:18 | 52.30372 | 4.76973 | -2 ft | 10 kts | 57° |
| 2026-04-30 19:19 | 52.30408 | 4.77054 | -2 ft | 3 kts | 33° |
| 2026-04-30 19:19 | 52.30433 | 4.77046 | -2 ft | 5 kts | 344° |
| 2026-04-30 19:19 | 52.30516 | 4.76960 | -2 ft | 8 kts | 328° |
| 2026-04-30 19:20 | 52.30571 | 4.76904 | -2 ft | 10 kts | 328° |
| 2026-04-30 19:20 | 52.30635 | 4.76874 | -2 ft | 10 kts | 13° |
| 2026-04-30 19:20 | 52.30658 | 4.77069 | -2 ft | 9 kts | 51° |
| 2026-04-30 19:21 | 52.30697 | 4.77088 | -2 ft | 4 kts | 1° |
| 2026-04-30 19:21 | 52.30707 | 4.77089 | -2 ft | 0 kts | 2° |